Time;durP1;ratioP1;P1;durP2;ratioP2;P2;SDS_P1;SDS_P2;PMS_P1;PMS_P2;Temp;Humidity;BMP_temperature;BMP_pressure;BME280_temperature;BME280_humidity;BME280_pressure;Samples;Min_cycle;Max_cycle;Signal;HPM_P1;HPM_P2
2023/06/15 00:02:20;;;;;;;7.65;3.95;;;;;;;21.45;64.48;100959.88;5016106;28;20975;-78
2023/06/15 00:04:46;;;;;;;9.40;4.00;;;;;;;21.44;64.55;100958.22;5016384;28;20423;-79
2023/06/15 00:07:11;;;;;;;9.43;4.10;;;;;;;21.49;64.36;100961.06;5012252;28;20394;-79
2023/06/15 00:09:37;;;;;;;10.00;4.00;;;;;;;21.51;64.23;100956.25;5012344;28;20407;-81
2023/06/15 00:12:03;;;;;;;7.35;4.00;;;;;;;21.52;64.25;100964.09;5010900;28;20462;-82
2023/06/15 00:14:29;;;;;;;7.47;3.70;;;;;;;21.52;64.25;100957.91;4999197;28;20399;-80
2023/06/15 00:16:55;;;;;;;9.35;4.13;;;;;;;21.51;64.29;100954.34;5015394;28;20403;-80
2023/06/15 00:19:21;;;;;;;9.97;4.30;;;;;;;21.53;64.17;100954.94;5015633;28;20384;-80
2023/06/15 00:21:48;;;;;;;7.22;3.92;;;;;;;21.51;64.44;100953.53;5015246;28;20487;-80
2023/06/15 00:24:17;;;;;;;8.18;4.15;;;;;;;21.56;64.15;100950.97;5015011;28;20401;-80
2023/06/15 00:26:43;;;;;;;8.25;4.20;;;;;;;21.60;64.02;100948.59;5015661;28;20399;-80
2023/06/15 00:29:10;;;;;;;5.70;3.97;;;;;;;21.58;64.21;100946.16;5014268;28;20470;-80
2023/06/15 00:31:35;;;;;;;9.60;4.50;;;;;;;21.60;63.97;100940.50;5014791;28;20400;-81
2023/06/15 00:34:01;;;;;;;7.03;4.30;;;;;;;21.68;63.91;100940.13;5015550;28;20388;-81
2023/06/15 00:36:27;;;;;;;8.13;4.25;;;;;;;21.68;64.10;100923.94;5016157;28;20395;-82
2023/06/15 00:38:52;;;;;;;9.67;4.53;;;;;;;21.74;64.01;100937.31;5015811;28;20400;-82
2023/06/15 00:41:18;;;;;;;8.88;4.40;;;;;;;21.69;64.29;100941.78;5015852;28;20395;-82
2023/06/15 00:43:43;;;;;;;8.57;4.40;;;;;;;21.65;64.27;100943.31;5016377;28;20464;-82
2023/06/15 00:46:10;;;;;;;8.53;4.50;;;;;;;21.69;64.22;100942.59;5016151;28;20454;-81
2023/06/15 00:48:36;;;;;;;9.68;4.25;;;;;;;21.72;64.21;100931.34;5016282;28;20535;-83
2023/06/15 00:51:03;;;;;;;7.65;4.20;;;;;;;21.69;63.92;100926.41;5015948;28;20846;-82
2023/06/15 00:53:28;;;;;;;7.60;4.20;;;;;;;21.63;64.33;100919.28;5016408;28;20895;-81
2023/06/15 00:55:54;;;;;;;6.20;4.00;;;;;;;21.60;64.47;100933.22;5016644;28;20389;-82
2023/06/15 00:58:21;;;;;;;8.43;4.40;;;;;;;21.65;64.31;100930.66;5015680;28;20404;-82
2023/06/15 01:00:49;;;;;;;8.20;5.10;;;;;;;21.74;64.17;100931.09;5015965;28;20876;-81
2023/06/15 01:03:19;;;;;;;7.32;4.40;;;;;;;21.70;64.23;100929.94;5015129;28;20483;-80
2023/06/15 01:05:46;;;;;;;7.50;4.20;;;;;;;21.65;64.44;100937.94;5013198;28;20388;-79
2023/06/15 01:08:13;;;;;;;6.50;4.05;;;;;;;21.57;64.52;100939.09;5010183;28;20707;-80
2023/06/15 01:10:40;;;;;;;6.88;4.30;;;;;;;21.46;64.97;100938.06;4997328;28;20438;-79
2023/06/15 01:13:10;;;;;;;7.53;4.47;;;;;;;21.39;65.02;100926.53;5014893;28;20396;-79
2023/06/15 01:15:36;;;;;;;7.17;4.40;;;;;;;21.32;65.48;100929.38;5015612;28;20432;-79
2023/06/15 01:18:03;;;;;;;8.70;4.65;;;;;;;21.20;65.84;100926.69;5015130;28;20415;-78
2023/06/15 01:20:38;;;;;;;7.03;4.40;;;;;;;21.13;66.15;100927.88;5015666;28;20392;-79
2023/06/15 01:23:36;;;;;;;7.25;4.70;;;;;;;21.07;66.48;100923.41;5016307;28;20846;-78
2023/06/15 01:26:07;;;;;;;13.03;4.70;;;;;;;21.02;66.77;100928.69;5019230;28;20388;-79
2023/06/15 01:28:46;;;;;;;9.20;4.43;;;;;;;20.98;66.86;100923.78;4998390;28;20404;-80
2023/06/15 01:31:12;;;;;;;9.98;4.40;;;;;;;20.98;66.80;100918.38;5015914;28;20399;-78
2023/06/15 01:33:48;;;;;;;6.70;4.40;;;;;;;21.02;66.78;100915.22;5015346;28;20503;-79
2023/06/15 01:36:14;;;;;;;10.65;4.72;;;;;;;21.02;66.80;100917.94;5005091;28;20411;-79
2023/06/15 01:38:41;;;;;;;11.80;4.75;;;;;;;20.92;67.18;100913.09;5002793;28;20400;-78
2023/06/15 01:41:08;;;;;;;10.88;4.93;;;;;;;20.95;67.18;100915.34;4996492;28;20525;-78
2023/06/15 01:43:35;;;;;;;11.23;4.65;;;;;;;20.99;67.02;100906.56;4999313;28;22026;-78
2023/06/15 01:46:03;;;;;;;12.60;4.93;;;;;;;20.98;66.81;100907.59;4992139;28;20431;-79
2023/06/15 01:48:29;;;;;;;13.68;4.68;;;;;;;20.95;66.99;100902.66;5012317;28;20474;-78
2023/06/15 01:50:56;;;;;;;11.70;4.35;;;;;;;20.93;66.87;100906.66;4994865;28;20469;-79
2023/06/15 01:53:22;;;;;;;11.25;4.43;;;;;;;20.94;67.19;100905.59;5011711;28;20427;-77
2023/06/15 01:55:48;;;;;;;14.75;4.70;;;;;;;20.96;66.72;100895.44;5012061;28;20400;-77
2023/06/15 01:58:17;;;;;;;13.20;4.67;;;;;;;21.00;66.63;100893.91;5014170;28;20482;-78
2023/06/15 02:00:43;;;;;;;13.95;4.85;;;;;;;21.05;66.50;100893.19;5014680;28;20410;-78
2023/06/15 02:03:10;;;;;;;12.73;4.72;;;;;;;21.00;66.58;100899.28;5014625;28;20408;-79
2023/06/15 02:05:39;;;;;;;17.83;5.20;;;;;;;20.86;67.15;100898.69;5013591;28;20523;-79
2023/06/15 02:08:05;;;;;;;12.23;4.80;;;;;;;20.88;67.17;100906.53;4996624;28;20940;-78
2023/06/15 02:10:31;;;;;;;11.80;5.20;;;;;;;20.97;66.73;100900.56;5014214;28;20420;-78
2023/06/15 02:12:57;;;;;;;10.60;4.90;;;;;;;21.00;66.71;100896.59;5014212;28;20471;-77
2023/06/15 02:15:22;;;;;;;15.25;5.57;;;;;;;21.08;66.44;100893.53;5014007;28;20399;-77
2023/06/15 02:17:48;;;;;;;9.97;4.73;;;;;;;21.20;65.87;100896.22;5005249;28;20403;-77
2023/06/15 02:20:14;;;;;;;14.80;4.88;;;;;;;21.29;65.64;100885.91;5011063;28;20404;-77
2023/06/15 02:22:40;;;;;;;12.10;4.75;;;;;;;21.41;65.35;100897.50;5004716;28;20395;-77
2023/06/15 02:25:07;;;;;;;15.35;5.32;;;;;;;21.47;65.25;100893.88;5013624;28;20391;-78
2023/06/15 02:27:33;;;;;;;13.48;5.00;;;;;;;21.50;65.19;100890.69;5013322;28;20400;-78
2023/06/15 02:29:59;;;;;;;13.07;5.18;;;;;;;21.48;65.10;100889.28;5013471;28;20403;-77
2023/06/15 02:32:36;;;;;;;15.43;5.20;;;;;;;21.51;65.18;100886.13;5011914;28;20411;-77
2023/06/15 02:35:05;;;;;;;11.60;5.00;;;;;;;21.52;65.01;100888.56;5012780;28;20407;-78
2023/06/15 02:37:31;;;;;;;12.20;5.28;;;;;;;21.37;65.37;100899.00;5013198;28;20941;-77
2023/06/15 02:39:57;;;;;;;14.43;5.38;;;;;;;21.24;66.08;100894.69;5012981;28;20500;-77
2023/06/15 02:42:22;;;;;;;15.33;5.50;;;;;;;21.19;66.31;100898.09;5012780;28;20404;-77
2023/06/15 02:44:48;;;;;;;10.57;5.33;;;;;;;21.18;66.23;100885.66;5012824;28;20403;-78
2023/06/15 02:47:13;;;;;;;9.52;5.00;;;;;;;21.19;66.26;100889.19;5013693;28;20813;-78
2023/06/15 02:49:39;;;;;;;12.90;5.30;;;;;;;21.25;66.18;100888.25;5012950;28;20407;-77
2023/06/15 02:52:05;;;;;;;9.77;5.03;;;;;;;21.20;66.48;100883.56;5013394;28;20400;-77
2023/06/15 02:54:30;;;;;;;12.00;5.53;;;;;;;21.04;67.04;100872.69;5017668;28;20384;-78
2023/06/15 02:56:56;;;;;;;10.33;4.97;;;;;;;20.91;67.45;100879.13;5009909;28;20425;-78
2023/06/15 02:59:25;;;;;;;12.52;5.18;;;;;;;20.84;67.76;100881.13;4998098;28;20397;-78
2023/06/15 03:01:52;;;;;;;10.93;5.63;;;;;;;20.83;67.80;100874.91;4997894;28;20385;-77
2023/06/15 03:04:21;;;;;;;12.30;5.10;;;;;;;20.94;67.50;100884.88;4978590;28;20473;-78
2023/06/15 03:06:50;;;;;;;13.43;5.68;;;;;;;21.06;66.99;100882.16;4995810;28;20421;-78
2023/06/15 03:09:20;;;;;;;11.53;5.80;;;;;;;21.11;66.98;100884.97;4996289;28;20413;-78
2023/06/15 03:11:46;;;;;;;12.45;5.13;;;;;;;21.24;66.34;100891.19;4996606;28;20386;-78
2023/06/15 03:14:12;;;;;;;9.20;5.20;;;;;;;21.29;66.28;100891.28;4992867;28;20466;-79
2023/06/15 03:16:39;;;;;;;11.80;5.57;;;;;;;21.20;66.24;100883.56;4988179;28;20821;-79
2023/06/15 03:19:05;;;;;;;10.00;5.55;;;;;;;21.27;66.32;100890.72;4996073;28;20394;-79
2023/06/15 03:21:30;;;;;;;13.07;5.40;;;;;;;21.29;66.15;100881.31;5000051;28;20484;-78
2023/06/15 03:23:56;;;;;;;13.85;5.35;;;;;;;21.26;66.30;100883.66;4999391;28;20497;-79
2023/06/15 03:26:23;;;;;;;15.90;5.10;;;;;;;21.16;66.68;100882.41;4996665;28;20404;-80
2023/06/15 03:28:49;;;;;;;13.05;5.53;;;;;;;21.16;66.87;100889.69;4996553;28;20425;-78
2023/06/15 03:31:18;;;;;;;15.95;6.30;;;;;;;21.13;67.10;100882.88;4996667;28;20428;-78
2023/06/15 03:33:46;;;;;;;15.82;5.70;;;;;;;21.02;67.45;100885.59;4996425;28;20401;-78
2023/06/15 03:36:14;;;;;;;12.57;5.80;;;;;;;20.92;67.93;100889.69;4996399;28;20418;-78
2023/06/15 03:38:42;;;;;;;12.30;5.80;;;;;;;20.91;68.10;100881.84;4997670;28;20436;-79
2023/06/15 03:41:08;;;;;;;14.35;5.90;;;;;;;20.99;68.14;100884.16;4999813;28;20394;-79
2023/06/15 03:43:37;;;;;;;15.77;6.17;;;;;;;21.05;67.72;100888.63;4997133;28;20857;-79
2023/06/15 03:46:04;;;;;;;17.88;6.00;;;;;;;21.05;67.80;100875.16;4995392;28;20739;-79
2023/06/15 03:48:29;;;;;;;15.35;6.25;;;;;;;21.00;67.96;100883.13;4995317;28;20795;-78
2023/06/15 03:50:56;;;;;;;18.60;6.77;;;;;;;20.95;68.45;100881.13;4993896;28;20416;-79
2023/06/15 03:53:22;;;;;;;13.07;6.30;;;;;;;20.99;68.33;100886.84;4992863;28;20481;-78
2023/06/15 03:55:47;;;;;;;17.90;6.80;;;;;;;21.09;68.17;100891.66;4993180;28;20553;-78
2023/06/15 03:58:14;;;;;;;16.27;6.30;;;;;;;21.11;68.15;100894.94;5011092;28;20415;-78
2023/06/15 04:00:40;;;;;;;18.83;6.82;;;;;;;21.07;68.24;100901.84;5011819;28;20536;-78
2023/06/15 04:03:06;;;;;;;12.80;6.72;;;;;;;21.05;68.27;100891.31;5014406;28;20943;-77
2023/06/15 04:05:32;;;;;;;18.52;7.65;;;;;;;21.12;68.07;100901.97;5012364;28;20745;-78
2023/06/15 04:07:59;;;;;;;14.37;7.20;;;;;;;21.19;68.00;100891.88;5011470;28;20431;-78
2023/06/15 04:10:25;;;;;;;17.53;7.43;;;;;;;21.16;67.91;100895.06;5010340;28;20396;-78
2023/06/15 04:12:51;;;;;;;17.33;6.95;;;;;;;21.21;67.99;100897.84;5011068;28;20471;-78
2023/06/15 04:15:16;;;;;;;15.13;7.53;;;;;;;21.17;68.32;100894.81;5013905;28;20427;-78
2023/06/15 04:17:42;;;;;;;18.97;7.63;;;;;;;21.21;68.18;100900.53;5013389;28;20396;-77
2023/06/15 04:20:08;;;;;;;15.95;7.95;;;;;;;21.27;68.06;100899.63;5014058;28;20396;-78
2023/06/15 04:22:35;;;;;;;16.67;7.93;;;;;;;21.24;68.12;100900.09;5015376;28;20411;-78
2023/06/15 04:25:00;;;;;;;15.52;7.68;;;;;;;21.31;68.04;100903.47;5015468;28;20395;-77
2023/06/15 04:27:27;;;;;;;18.88;8.20;;;;;;;21.27;68.15;100909.59;5014579;28;20392;-78
2023/06/15 04:29:53;;;;;;;16.38;8.23;;;;;;;21.18;68.53;100904.53;5012847;28;20400;-78
2023/06/15 04:32:19;;;;;;;17.53;8.27;;;;;;;21.27;68.41;100910.41;5013901;28;20877;-76
2023/06/15 04:34:45;;;;;;;17.02;8.20;;;;;;;21.24;68.52;100912.75;4995921;28;20392;-77
2023/06/15 04:37:13;;;;;;;17.45;8.27;;;;;;;21.29;68.53;100910.16;5013668;28;20899;-77
2023/06/15 04:39:39;;;;;;;14.30;8.68;;;;;;;21.36;68.40;100914.38;5012484;28;20395;-77
2023/06/15 04:42:08;;;;;;;12.43;8.07;;;;;;;21.38;68.58;100919.53;4995723;28;20376;-76
2023/06/15 04:44:34;;;;;;;18.85;8.40;;;;;;;21.49;68.20;100924.09;5012427;28;20733;-76
2023/06/15 04:47:00;;;;;;;13.77;8.00;;;;;;;21.37;68.12;100918.72;5013063;28;20488;-77
2023/06/15 04:49:25;;;;;;;13.63;8.30;;;;;;;21.31;68.62;100925.03;4996289;28;20415;-78
2023/06/15 04:51:51;;;;;;;14.27;8.30;;;;;;;21.31;68.64;100924.22;5013129;28;20439;-77
2023/06/15 04:54:17;;;;;;;14.53;9.10;;;;;;;21.31;68.89;100937.72;5013830;28;20422;-77
2023/06/15 04:56:43;;;;;;;12.45;9.27;;;;;;;21.25;68.96;100923.31;5012930;28;20424;-78
2023/06/15 04:59:08;;;;;;;14.17;8.63;;;;;;;21.28;68.86;100932.78;5013931;28;20392;-77
2023/06/15 05:01:34;;;;;;;15.63;9.27;;;;;;;21.21;69.15;100932.91;5013849;28;20443;-77
2023/06/15 05:04:00;;;;;;;13.90;8.87;;;;;;;21.29;69.30;100937.13;5013487;28;20384;-79
2023/06/15 05:06:26;;;;;;;14.43;9.32;;;;;;;21.39;68.71;100931.94;5013393;28;20907;-77
2023/06/15 05:08:51;;;;;;;12.43;8.90;;;;;;;21.42;68.66;100939.56;5011856;28;20451;-76
2023/06/15 05:11:17;;;;;;;15.10;9.07;;;;;;;21.48;68.48;100930.56;4999044;28;20409;-77
2023/06/15 05:13:42;;;;;;;15.20;9.53;;;;;;;21.51;68.27;100932.78;4997497;28;20399;-78
2023/06/15 05:16:08;;;;;;;16.97;9.30;;;;;;;21.57;67.98;100944.50;5005889;28;20924;-78
2023/06/15 05:18:34;;;;;;;13.38;9.63;;;;;;;21.56;68.18;100940.16;5013347;28;20440;-78
2023/06/15 05:20:59;;;;;;;17.00;10.20;;;;;;;21.61;68.00;100937.59;5010033;28;20419;-78
2023/06/15 05:23:25;;;;;;;14.07;9.10;;;;;;;21.61;68.04;100940.28;4992978;28;20388;-78
2023/06/15 05:25:51;;;;;;;17.97;9.37;;;;;;;21.61;68.18;100942.13;5009986;28;21052;-76
2023/06/15 05:28:18;;;;;;;15.55;9.10;;;;;;;21.71;67.83;100931.56;5009976;28;20404;-76
2023/06/15 05:30:44;;;;;;;10.70;8.30;;;;;;;21.75;67.79;100943.50;5010689;28;20402;-77
2023/06/15 05:33:09;;;;;;;11.60;7.28;;;;;;;21.71;67.40;100943.16;5012244;28;20474;-78
2023/06/15 05:35:35;;;;;;;10.33;7.13;;;;;;;21.61;67.52;100939.44;5015953;28;20380;-79
2023/06/15 05:38:00;;;;;;;7.47;6.70;;;;;;;21.69;67.38;100945.28;5014893;28;20373;-77
2023/06/15 05:40:26;;;;;;;8.73;6.77;;;;;;;21.75;67.28;100944.34;5014485;28;20384;-79
2023/06/15 05:42:51;;;;;;;8.17;6.00;;;;;;;21.65;67.04;100952.22;5014068;28;20390;-76
2023/06/15 05:45:17;;;;;;;13.18;8.40;;;;;;;21.70;67.12;100960.44;4996126;28;20484;-78
2023/06/15 05:47:42;;;;;;;11.05;6.80;;;;;;;21.55;67.10;100950.16;5014860;28;20742;-81
2023/06/15 05:50:08;;;;;;;7.93;6.60;;;;;;;21.65;66.83;100967.59;4996375;28;20400;-79
2023/06/15 05:52:34;;;;;;;10.00;6.90;;;;;;;21.82;66.47;100960.38;5013697;28;20387;-76
2023/06/15 05:55:00;;;;;;;10.07;7.27;;;;;;;21.83;66.20;100958.53;5011576;28;20412;-77
2023/06/15 05:57:25;;;;;;;8.55;6.95;;;;;;;21.80;66.20;100964.41;5009497;28;20406;-77
2023/06/15 05:59:51;;;;;;;10.30;6.40;;;;;;;21.75;66.05;100973.19;5011985;28;20396;-77
2023/06/15 06:02:16;;;;;;;11.67;7.60;;;;;;;21.87;66.10;100967.78;5011617;28;20392;-78
2023/06/15 06:04:42;;;;;;;11.00;7.37;;;;;;;21.98;65.96;100958.00;5011700;28;20466;-77
2023/06/15 06:07:07;;;;;;;8.87;6.93;;;;;;;21.98;65.66;100952.63;5014866;28;20384;-78
2023/06/15 06:09:33;;;;;;;8.48;6.50;;;;;;;21.90;65.79;100968.13;5015830;28;20455;-77
2023/06/15 06:12:00;;;;;;;8.98;5.90;;;;;;;22.00;65.21;100958.59;4994336;28;20444;-79
2023/06/15 06:14:26;;;;;;;9.50;6.50;;;;;;;22.09;64.98;100957.97;5011266;28;20392;-76
2023/06/15 06:16:52;;;;;;;11.40;6.88;;;;;;;22.22;64.62;100956.03;4996712;28;20391;-78
2023/06/15 06:19:18;;;;;;;12.93;6.60;;;;;;;22.34;64.77;100956.81;5013054;28;20388;-78
2023/06/15 06:21:43;;;;;;;8.77;6.10;;;;;;;22.49;64.62;100951.72;5011425;28;20415;-77
2023/06/15 06:24:09;;;;;;;9.90;6.00;;;;;;;22.70;64.19;100963.66;5008882;28;20482;-76
2023/06/15 06:26:38;;;;;;;8.13;5.30;;;;;;;22.78;62.55;100959.75;5012064;28;20423;-77
2023/06/15 06:29:03;;;;;;;11.32;5.82;;;;;;;22.85;63.28;100954.16;5011573;28;20420;-76
2023/06/15 06:31:29;;;;;;;8.63;5.63;;;;;;;22.95;62.68;100953.53;4993989;28;20936;-77
2023/06/15 06:33:55;;;;;;;11.67;7.07;;;;;;;23.21;62.41;100958.28;5011816;28;20384;-81
2023/06/15 06:36:21;;;;;;;7.28;5.47;;;;;;;23.41;61.46;100956.94;5009700;28;20406;-77
2023/06/15 06:38:47;;;;;;;6.88;5.68;;;;;;;23.29;61.12;100963.25;5012334;28;20398;-77
2023/06/15 06:41:14;;;;;;;7.67;6.13;;;;;;;23.27;60.74;100968.09;5011597;28;20473;-80
2023/06/15 06:43:39;;;;;;;8.00;5.32;;;;;;;23.32;60.88;100971.94;5012298;28;20380;-78
2023/06/15 06:46:05;;;;;;;6.97;5.30;;;;;;;23.20;60.42;100967.44;5012354;28;20462;-79
2023/06/15 06:48:30;;;;;;;8.25;5.03;;;;;;;23.30;60.35;100958.69;4994819;28;20407;-77
2023/06/15 06:50:56;;;;;;;7.57;5.40;;;;;;;23.38;59.98;100970.97;5014163;28;20747;-77
2023/06/15 06:53:21;;;;;;;7.85;5.72;;;;;;;23.43;59.45;100968.31;5011541;28;20399;-77
2023/06/15 06:55:48;;;;;;;6.97;5.80;;;;;;;23.59;59.45;100969.34;5004896;28;20380;-78
2023/06/15 06:58:13;;;;;;;9.45;5.63;;;;;;;23.56;59.07;100962.53;5012788;28;20415;-78
2023/06/15 07:00:39;;;;;;;9.93;5.90;;;;;;;23.71;59.28;100961.91;5012272;28;20384;-77
2023/06/15 07:03:04;;;;;;;10.95;5.88;;;;;;;23.80;58.91;100973.16;4998420;28;21323;-78
2023/06/15 07:05:30;;;;;;;11.03;6.70;;;;;;;23.43;59.61;100962.91;5013184;28;21125;-78
2023/06/15 07:07:56;;;;;;;10.73;7.10;;;;;;;23.32;59.65;100969.22;5011537;28;20924;-78
2023/06/15 07:10:21;;;;;;;8.77;6.50;;;;;;;23.28;59.91;100974.31;5011934;28;20401;-76
2023/06/15 07:12:47;;;;;;;8.88;6.57;;;;;;;23.18;59.78;100968.78;5017489;28;20737;-77
2023/06/15 07:15:13;;;;;;;8.80;6.37;;;;;;;23.34;59.56;100972.53;5014186;28;20385;-78
2023/06/15 07:17:38;;;;;;;10.10;6.55;;;;;;;23.39;59.00;100984.25;5013351;28;20391;-77
2023/06/15 07:20:05;;;;;;;10.30;7.63;;;;;;;23.45;58.74;100960.78;5013423;28;20392;-77
2023/06/15 07:22:30;;;;;;;9.80;7.03;;;;;;;23.51;58.50;100961.66;5011053;28;20384;-78
2023/06/15 07:24:56;;;;;;;8.07;6.68;;;;;;;23.57;58.89;100956.06;4995781;28;20392;-77
2023/06/15 07:27:21;;;;;;;8.93;6.70;;;;;;;23.79;58.48;100966.09;5011176;28;20392;-78
2023/06/15 07:29:47;;;;;;;10.40;6.73;;;;;;;23.96;58.24;100960.63;5012570;28;20491;-78
2023/06/15 07:32:13;;;;;;;10.02;7.05;;;;;;;23.85;58.19;100960.50;5014813;28;20438;-77
2023/06/15 07:34:42;;;;;;;11.27;7.05;;;;;;;24.12;57.78;100957.00;4994784;28;20769;-79
2023/06/15 07:37:07;;;;;;;10.50;6.97;;;;;;;24.06;57.32;100955.31;5013068;28;20845;-78
2023/06/15 07:39:34;;;;;;;9.25;6.47;;;;;;;23.87;57.67;100954.81;5014721;28;20392;-76
2023/06/15 07:42:00;;;;;;;12.20;7.33;;;;;;;23.94;57.56;100960.88;5000350;28;20395;-77
2023/06/15 07:44:26;;;;;;;8.85;7.20;;;;;;;24.20;57.36;100950.31;5016893;28;20384;-77
2023/06/15 07:46:51;;;;;;;13.63;7.53;;;;;;;24.43;56.74;100952.72;5017828;28;20462;-77
2023/06/15 07:49:17;;;;;;;8.73;7.30;;;;;;;24.56;56.13;100956.09;5016915;28;20438;-77
2023/06/15 07:51:44;;;;;;;7.57;6.73;;;;;;;24.33;56.25;100952.63;5015941;28;20869;-77
2023/06/15 07:54:09;;;;;;;8.32;6.90;;;;;;;24.29;56.38;100956.09;5017057;28;20930;-77
2023/06/15 07:56:35;;;;;;;8.05;6.60;;;;;;;24.32;56.72;100956.38;5017576;28;20546;-77
2023/06/15 07:59:00;;;;;;;12.33;7.30;;;;;;;24.42;56.29;100956.50;5017300;28;20485;-77
2023/06/15 08:01:25;;;;;;;9.83;6.83;;;;;;;24.51;56.27;100948.72;5015252;28;20388;-78
2023/06/15 08:03:51;;;;;;;7.97;7.18;;;;;;;24.73;55.71;100951.38;5015553;28;20388;-78
2023/06/15 08:06:16;;;;;;;9.63;6.93;;;;;;;24.92;55.22;100962.66;5014606;28;20880;-77
2023/06/15 08:08:43;;;;;;;7.60;6.80;;;;;;;24.79;54.94;100963.91;5014156;28;20408;-78
2023/06/15 08:11:09;;;;;;;8.40;7.28;;;;;;;24.49;55.56;100956.28;5015771;28;20876;-77
2023/06/15 08:13:37;;;;;;;13.30;7.30;;;;;;;24.34;56.21;100956.13;5014618;28;20420;-78
2023/06/15 08:16:03;;;;;;;9.57;7.20;;;;;;;24.33;56.04;100954.53;4994369;28;20394;-77
2023/06/15 08:18:29;;;;;;;9.80;7.28;;;;;;;24.33;56.43;100949.91;5013076;28;20395;-78
2023/06/15 08:20:55;;;;;;;10.63;6.90;;;;;;;24.28;56.13;100957.97;5014001;28;20388;-78
2023/06/15 08:23:21;;;;;;;12.07;6.82;;;;;;;24.32;56.27;100950.97;5014215;28;20431;-76
2023/06/15 08:25:47;;;;;;;8.65;7.78;;;;;;;24.29;56.53;100951.50;5014786;28;20399;-77
2023/06/15 08:28:13;;;;;;;9.33;8.37;;;;;;;23.77;58.12;100955.50;5015729;28;20400;-81
2023/06/15 08:30:38;;;;;;;9.98;8.50;;;;;;;23.63;58.43;100951.53;4985989;28;20400;-81
2023/06/15 08:33:04;;;;;;;9.23;8.33;;;;;;;23.27;59.67;100965.41;5002488;28;20392;-79
2023/06/15 08:35:30;;;;;;;12.38;8.98;;;;;;;23.37;59.49;100958.47;5000606;28;20447;-77
2023/06/15 08:37:55;;;;;;;9.93;8.93;;;;;;;23.19;59.78;100965.00;4998120;28;21006;-80
2023/06/15 08:40:21;;;;;;;9.13;8.23;;;;;;;22.78;61.01;100961.63;5000915;28;20397;-82
2023/06/15 08:42:47;;;;;;;12.75;9.73;;;;;;;22.79;61.29;100964.09;5001807;28;20437;-79
2023/06/15 08:45:13;;;;;;;11.77;9.50;;;;;;;22.88;60.77;100969.91;4992479;28;20388;-78
2023/06/15 08:47:40;;;;;;;10.43;9.38;;;;;;;23.01;60.59;100968.75;5012857;28;20411;-80
2023/06/15 08:50:06;;;;;;;13.07;8.73;;;;;;;22.88;60.78;100972.59;5011604;28;20411;-77
2023/06/15 08:52:35;;;;;;;10.68;9.40;;;;;;;22.99;60.73;100965.47;5014594;28;20395;-76
2023/06/15 08:55:02;;;;;;;11.10;8.82;;;;;;;23.00;60.56;100961.72;4996688;28;20392;-81
2023/06/15 08:57:28;;;;;;;11.13;9.38;;;;;;;23.16;60.71;100960.91;4991094;28;20408;-76
2023/06/15 08:59:55;;;;;;;10.02;9.00;;;;;;;23.20;60.40;100967.44;4995512;28;20382;-78
2023/06/15 09:02:22;;;;;;;10.13;8.93;;;;;;;23.00;60.53;100961.72;4995798;28;20393;-77
2023/06/15 09:04:49;;;;;;;11.32;9.77;;;;;;;23.34;60.32;100972.53;4996607;28;20485;-77
2023/06/15 09:07:14;;;;;;;10.85;9.40;;;;;;;23.60;59.43;100974.50;4995572;28;20390;-77
2023/06/15 09:10:09;;;;;;;11.32;9.63;;;;;;;23.66;58.94;100962.69;4997499;28;20503;-79
2023/06/15 09:12:41;;;;;;;9.80;8.80;;;;;;;23.74;59.06;100966.81;4995052;28;20480;-78
2023/06/15 09:15:07;;;;;;;9.75;8.38;;;;;;;23.60;59.13;100969.09;4994291;28;20452;-78
2023/06/15 09:17:36;;;;;;;9.85;8.85;;;;;;;23.32;59.64;100964.66;4994467;28;20394;-75
2023/06/15 09:20:02;;;;;;;9.00;8.10;;;;;;;23.33;59.54;100968.97;4994664;28;20390;-77
2023/06/15 09:22:29;;;;;;;11.65;9.45;;;;;;;23.54;59.58;100958.47;4994027;28;20468;-77
2023/06/15 09:24:54;;;;;;;10.95;9.50;;;;;;;23.87;58.69;100957.53;4995336;28;20381;-77
2023/06/15 09:27:20;;;;;;;11.27;9.10;;;;;;;23.75;58.46;100960.34;4997617;28;20389;-77
2023/06/15 09:30:17;;;;;;;10.50;9.48;;;;;;;23.77;58.40;100952.78;4995835;28;21077;-79
2023/06/15 09:32:43;;;;;;;10.10;9.13;;;;;;;23.59;58.52;100950.41;4970696;28;20398;-76
2023/06/15 09:35:08;;;;;;;10.55;9.45;;;;;;;23.87;58.20;100954.03;4993869;28;20447;-78
2023/06/15 09:37:34;;;;;;;11.32;10.18;;;;;;;23.98;58.06;100953.06;4993069;28;20398;-77
2023/06/15 09:40:04;;;;;;;9.87;8.60;;;;;;;23.93;57.41;100944.88;4993139;28;20386;-77
2023/06/15 09:42:29;;;;;;;10.23;9.23;;;;;;;23.95;57.73;100957.09;4992118;28;20394;-78
2023/06/15 09:45:05;;;;;;;12.73;9.90;;;;;;;24.03;57.57;100953.94;4993688;28;20395;-78
2023/06/15 09:47:31;;;;;;;10.70;9.30;;;;;;;24.11;57.67;100954.53;4993246;28;20472;-77
2023/06/15 09:49:58;;;;;;;10.63;8.80;;;;;;;24.14;57.53;100948.63;4994037;28;20405;-77
2023/06/15 09:52:24;;;;;;;9.85;8.85;;;;;;;24.10;57.68;100951.03;4995292;28;20835;-79
2023/06/15 09:54:51;;;;;;;10.37;7.70;;;;;;;24.16;57.42;100946.47;4994353;28;20871;-77
2023/06/15 09:57:19;;;;;;;9.07;8.18;;;;;;;24.16;57.11;100947.28;4992890;28;20473;-77
2023/06/15 09:59:48;;;;;;;8.98;8.07;;;;;;;24.23;57.03;100939.78;4993042;28;20937;-79
2023/06/15 10:02:17;;;;;;;8.80;8.00;;;;;;;23.98;58.16;100958.47;4993270;28;20429;-79
2023/06/15 10:04:46;;;;;;;9.00;8.10;;;;;;;24.17;57.66;100943.50;4992944;28;20417;-77
2023/06/15 10:07:13;;;;;;;9.25;7.90;;;;;;;24.14;58.02;100938.59;4994511;28;20732;-76
2023/06/15 10:09:46;;;;;;;9.10;7.97;;;;;;;24.22;57.55;100938.16;4992259;28;20405;-79
2023/06/15 10:12:14;;;;;;;9.40;8.50;;;;;;;24.27;57.41;100936.56;4996112;28;20420;-79
2023/06/15 10:14:50;;;;;;;8.80;7.78;;;;;;;24.16;57.63;100941.88;4995775;28;20731;-77
2023/06/15 10:17:20;;;;;;;9.02;8.15;;;;;;;23.87;58.92;100930.47;4993597;28;20377;-77
2023/06/15 10:19:50;;;;;;;9.85;8.30;;;;;;;24.12;59.00;100935.34;4975785;28;20400;-77
2023/06/15 10:22:23;;;;;;;8.32;7.53;;;;;;;23.98;59.37;100931.41;4993532;28;20456;-77
2023/06/15 10:24:51;;;;;;;9.20;8.25;;;;;;;23.93;59.72;100934.03;4992436;28;20445;-76
2023/06/15 10:27:17;;;;;;;9.80;8.80;;;;;;;24.05;59.57;100934.72;4991907;28;20413;-77
2023/06/15 10:29:54;;;;;;;9.50;7.80;;;;;;;24.17;58.93;100932.69;4992448;28;20543;-79
2023/06/15 10:32:52;;;;;;;11.02;8.68;;;;;;;24.14;59.17;100932.38;4995761;28;20874;-77
2023/06/15 10:35:32;;;;;;;10.50;8.73;;;;;;;24.38;58.41;100919.31;4952488;28;20390;-78
2023/06/15 10:38:15;;;;;;;8.27;7.47;;;;;;;23.84;59.63;100922.84;4994549;28;20394;-78
2023/06/15 10:40:48;;;;;;;9.18;8.27;;;;;;;24.01;59.71;100923.56;4994920;28;20397;-79
2023/06/15 10:43:21;;;;;;;8.73;7.53;;;;;;;23.99;59.02;100919.50;4993391;28;20392;-77
2023/06/15 10:45:47;;;;;;;9.50;7.65;;;;;;;23.94;59.78;100917.53;4993182;28;20410;-79
2023/06/15 10:48:27;;;;;;;9.35;7.93;;;;;;;24.01;59.89;100922.78;4993485;28;20481;-79
2023/06/15 10:51:12;;;;;;;8.27;6.90;;;;;;;23.92;59.90;100921.59;4992927;28;20787;-81
2023/06/15 10:53:42;;;;;;;8.52;7.65;;;;;;;23.85;60.45;100925.28;4996146;28;20431;-76
2023/06/15 10:56:13;;;;;;;9.00;7.77;;;;;;;23.97;60.32;100924.34;4993332;28;20391;-76
2023/06/15 10:58:54;;;;;;;8.23;7.40;;;;;;;23.70;61.38;100927.81;5013246;28;20402;-78
2023/06/15 11:01:25;;;;;;;9.20;7.65;;;;;;;23.62;61.30;100920.97;5013708;28;20787;-77
2023/06/15 11:03:55;;;;;;;11.98;8.15;;;;;;;23.87;60.96;100910.69;4996386;28;20439;-76
2023/06/15 11:06:22;;;;;;;7.38;6.60;;;;;;;23.98;60.67;100917.84;5017214;28;20828;-77
2023/06/15 11:08:52;;;;;;;8.75;7.43;;;;;;;23.87;60.39;100913.41;5012275;28;20415;-77
2023/06/15 11:11:21;;;;;;;8.10;7.38;;;;;;;24.02;60.01;100913.56;5013716;28;20383;-78
2023/06/15 11:14:00;;;;;;;7.65;6.88;;;;;;;23.47;61.42;100916.16;5006407;28;20435;-79
2023/06/15 11:16:36;;;;;;;8.98;7.80;;;;;;;23.60;61.91;100914.16;5009775;28;20392;-77
2023/06/15 11:19:11;;;;;;;9.65;7.72;;;;;;;23.94;60.36;100904.00;5009507;28;20883;-78
2023/06/15 11:21:40;;;;;;;9.82;8.00;;;;;;;24.07;60.41;100904.69;5007337;28;20870;-79
2023/06/15 11:24:06;;;;;;;9.30;6.68;;;;;;;23.94;59.80;100901.28;5014881;28;20426;-78